sensor_id;sensor_type;location;lat;lon;timestamp;temperature;humidity
20740;DHT22;10530;49.968;19.844;2023-12-29T00:04:50;5.80;99.90
20740;DHT22;10530;49.968;19.844;2023-12-29T00:09:53;5.70;99.90
20740;DHT22;10530;49.968;19.844;2023-12-29T00:14:56;5.80;99.90
20740;DHT22;10530;49.968;19.844;2023-12-29T00:19:59;5.80;99.90
20740;DHT22;10530;49.968;19.844;2023-12-29T00:25:02;5.90;99.90
20740;DHT22;10530;49.968;19.844;2023-12-29T00:30:05;6.10;99.90
20740;DHT22;10530;49.968;19.844;2023-12-29T00:35:09;6.10;99.90
20740;DHT22;10530;49.968;19.844;2023-12-29T00:40:12;6.10;99.90
20740;DHT22;10530;49.968;19.844;2023-12-29T00:45:15;6.00;99.90
20740;DHT22;10530;49.968;19.844;2023-12-29T00:50:18;5.90;99.90
20740;DHT22;10530;49.968;19.844;2023-12-29T00:55:21;5.90;99.90
20740;DHT22;10530;49.968;19.844;2023-12-29T01:00:24;5.90;99.90
20740;DHT22;10530;49.968;19.844;2023-12-29T01:05:27;5.80;99.90
20740;DHT22;10530;49.968;19.844;2023-12-29T01:10:30;5.50;99.90
20740;DHT22;10530;49.968;19.844;2023-12-29T01:15:33;5.60;99.90
20740;DHT22;10530;49.968;19.844;2023-12-29T01:20:36;5.60;99.90
20740;DHT22;10530;49.968;19.844;2023-12-29T01:25:39;5.80;99.90
20740;DHT22;10530;49.968;19.844;2023-12-29T01:30:42;5.60;99.90
20740;DHT22;10530;49.968;19.844;2023-12-29T01:35:45;5.50;99.90
20740;DHT22;10530;49.968;19.844;2023-12-29T01:40:48;5.50;99.90
20740;DHT22;10530;49.968;19.844;2023-12-29T01:45:50;5.50;99.90
20740;DHT22;10530;49.968;19.844;2023-12-29T01:50:59;5.50;99.90
20740;DHT22;10530;49.968;19.844;2023-12-29T01:56:02;5.40;99.90
20740;DHT22;10530;49.968;19.844;2023-12-29T02:01:07;5.40;99.90
20740;DHT22;10530;49.968;19.844;2023-12-29T02:06:10;5.40;99.90
20740;DHT22;10530;49.968;19.844;2023-12-29T02:11:14;5.50;99.90
20740;DHT22;10530;49.968;19.844;2023-12-29T02:16:23;5.40;99.90
20740;DHT22;10530;49.968;19.844;2023-12-29T02:21:30;5.50;99.90
20740;DHT22;10530;49.968;19.844;2023-12-29T02:26:34;5.60;99.90
20740;DHT22;10530;49.968;19.844;2023-12-29T02:31:39;5.50;99.90
20740;DHT22;10530;49.968;19.844;2023-12-29T02:36:44;5.40;99.90
20740;DHT22;10530;49.968;19.844;2023-12-29T02:41:48;5.40;99.90
20740;DHT22;10530;49.968;19.844;2023-12-29T02:46:51;5.70;99.90
20740;DHT22;10530;49.968;19.844;2023-12-29T02:51:54;6.20;99.90
20740;DHT22;10530;49.968;19.844;2023-12-29T02:56:57;7.20;99.90
20740;DHT22;10530;49.968;19.844;2023-12-29T03:02:00;7.70;99.90
20740;DHT22;10530;49.968;19.844;2023-12-29T03:07:04;8.20;99.90
20740;DHT22;10530;49.968;19.844;2023-12-29T03:12:07;8.50;99.90
20740;DHT22;10530;49.968;19.844;2023-12-29T03:17:10;8.50;99.90
20740;DHT22;10530;49.968;19.844;2023-12-29T03:22:13;8.50;99.90
20740;DHT22;10530;49.968;19.844;2023-12-29T03:27:16;8.50;99.90
20740;DHT22;10530;49.968;19.844;2023-12-29T03:32:19;8.70;99.90
20740;DHT22;10530;49.968;19.844;2023-12-29T03:37:22;8.70;99.90
20740;DHT22;10530;49.968;19.844;2023-12-29T03:42:25;8.60;99.90
20740;DHT22;10530;49.968;19.844;2023-12-29T03:47:28;8.60;99.90
20740;DHT22;10530;49.968;19.844;2023-12-29T03:52:32;8.80;96.60
20740;DHT22;10530;49.968;19.844;2023-12-29T03:57:35;8.70;96.10
20740;DHT22;10530;49.968;19.844;2023-12-29T04:02:38;8.70;92.40
20740;DHT22;10530;49.968;19.844;2023-12-29T04:07:41;8.90;86.20
20740;DHT22;10530;49.968;19.844;2023-12-29T04:12:44;8.90;84.80
20740;DHT22;10530;49.968;19.844;2023-12-29T04:17:47;8.90;82.50
20740;DHT22;10530;49.968;19.844;2023-12-29T04:22:50;8.80;84.20
20740;DHT22;10530;49.968;19.844;2023-12-29T04:27:53;8.80;79.10
20740;DHT22;10530;49.968;19.844;2023-12-29T04:32:56;9.10;74.10
20740;DHT22;10530;49.968;19.844;2023-12-29T04:37:59;9.10;73.30
20740;DHT22;10530;49.968;19.844;2023-12-29T04:43:03;9.30;68.80
20740;DHT22;10530;49.968;19.844;2023-12-29T04:48:06;9.30;67.10
20740;DHT22;10530;49.968;19.844;2023-12-29T04:53:10;9.30;68.30
20740;DHT22;10530;49.968;19.844;2023-12-29T04:58:12;9.30;67.70
20740;DHT22;10530;49.968;19.844;2023-12-29T05:03:15;9.40;65.90
20740;DHT22;10530;49.968;19.844;2023-12-29T05:08:18;9.30;65.00
20740;DHT22;10530;49.968;19.844;2023-12-29T05:13:21;9.40;63.00
20740;DHT22;10530;49.968;19.844;2023-12-29T05:18:24;9.50;62.90
20740;DHT22;10530;49.968;19.844;2023-12-29T05:23:27;9.50;63.00
20740;DHT22;10530;49.968;19.844;2023-12-29T05:28:29;9.60;62.10
20740;DHT22;10530;49.968;19.844;2023-12-29T05:33:33;9.60;63.70
20740;DHT22;10530;49.968;19.844;2023-12-29T05:38:37;9.70;61.40
20740;DHT22;10530;49.968;19.844;2023-12-29T05:43:40;9.70;61.10
20740;DHT22;10530;49.968;19.844;2023-12-29T05:48:43;9.60;64.40
20740;DHT22;10530;49.968;19.844;2023-12-29T05:53:46;9.60;68.60
20740;DHT22;10530;49.968;19.844;2023-12-29T05:58:49;9.30;73.30
20740;DHT22;10530;49.968;19.844;2023-12-29T06:03:51;9.20;76.40
20740;DHT22;10530;49.968;19.844;2023-12-29T06:08:55;9.10;78.90
20740;DHT22;10530;49.968;19.844;2023-12-29T06:13:57;8.90;83.60
20740;DHT22;10530;49.968;19.844;2023-12-29T06:19:00;8.80;87.00
20740;DHT22;10530;49.968;19.844;2023-12-29T06:24:03;8.70;91.10
20740;DHT22;10530;49.968;19.844;2023-12-29T06:29:06;8.60;90.60
20740;DHT22;10530;49.968;19.844;2023-12-29T06:34:10;8.50;95.30
20740;DHT22;10530;49.968;19.844;2023-12-29T06:39:13;8.40;99.70
20740;DHT22;10530;49.968;19.844;2023-12-29T06:44:16;8.80;97.70
20740;DHT22;10530;49.968;19.844;2023-12-29T06:49:19;9.00;99.70
20740;DHT22;10530;49.968;19.844;2023-12-29T06:54:22;9.40;99.90
20740;DHT22;10530;49.968;19.844;2023-12-29T06:59:25;9.50;99.90
20740;DHT22;10530;49.968;19.844;2023-12-29T07:04:28;9.60;99.90
20740;DHT22;10530;49.968;19.844;2023-12-29T07:09:31;9.70;99.90
20740;DHT22;10530;49.968;19.844;2023-12-29T07:14:33;9.90;99.90
20740;DHT22;10530;49.968;19.844;2023-12-29T07:19:38;10.10;99.90
20740;DHT22;10530;49.968;19.844;2023-12-29T07:24:41;10.10;99.90
20740;DHT22;10530;49.968;19.844;2023-12-29T07:29:43;10.10;99.90
20740;DHT22;10530;49.968;19.844;2023-12-29T07:34:47;10.20;99.90
20740;DHT22;10530;49.968;19.844;2023-12-29T07:39:51;10.30;99.90
20740;DHT22;10530;49.968;19.844;2023-12-29T07:44:54;10.30;99.90
20740;DHT22;10530;49.968;19.844;2023-12-29T07:49:59;10.20;99.90
20740;DHT22;10530;49.968;19.844;2023-12-29T07:55:02;10.20;99.90
20740;DHT22;10530;49.968;19.844;2023-12-29T08:00:05;10.30;99.90
20740;DHT22;10530;49.968;19.844;2023-12-29T08:05:13;11.60;99.70
20740;DHT22;10530;49.968;19.844;2023-12-29T08:10:18;12.10;92.20
20740;DHT22;10530;49.968;19.844;2023-12-29T08:15:21;12.60;83.10
20740;DHT22;10530;49.968;19.844;2023-12-29T08:20:24;14.20;64.40
20740;DHT22;10530;49.968;19.844;2023-12-29T08:25:27;14.10;49.00
20740;DHT22;10530;49.968;19.844;2023-12-29T08:30:33;12.90;52.10
20740;DHT22;10530;49.968;19.844;2023-12-29T08:35:37;12.10;68.00
20740;DHT22;10530;49.968;19.844;2023-12-29T08:40:40;11.90;67.00
20740;DHT22;10530;49.968;19.844;2023-12-29T08:45:44;11.90;67.40
20740;DHT22;10530;49.968;19.844;2023-12-29T08:50:47;11.60;65.40
20740;DHT22;10530;49.968;19.844;2023-12-29T08:55:50;17.10;25.60
20740;DHT22;10530;49.968;19.844;2023-12-29T09:00:53;17.10;17.40
20740;DHT22;10530;49.968;19.844;2023-12-29T09:05:57;16.20;16.10
20740;DHT22;10530;49.968;19.844;2023-12-29T09:11:02;13.70;23.50
20740;DHT22;10530;49.968;19.844;2023-12-29T09:16:05;12.70;32.90
20740;DHT22;10530;49.968;19.844;2023-12-29T09:21:09;12.40;33.50
20740;DHT22;10530;49.968;19.844;2023-12-29T09:26:12;13.20;29.80
20740;DHT22;10530;49.968;19.844;2023-12-29T09:31:15;12.60;28.90
20740;DHT22;10530;49.968;19.844;2023-12-29T09:36:18;12.70;31.60
20740;DHT22;10530;49.968;19.844;2023-12-29T09:41:24;14.60;24.60
20740;DHT22;10530;49.968;19.844;2023-12-29T09:46:32;14.70;19.80
20740;DHT22;10530;49.968;19.844;2023-12-29T09:51:38;14.70;15.50
20740;DHT22;10530;49.968;19.844;2023-12-29T09:56:41;13.80;19.20
20740;DHT22;10530;49.968;19.844;2023-12-29T10:01:45;13.10;22.00
20740;DHT22;10530;49.968;19.844;2023-12-29T10:06:50;13.80;18.50
20740;DHT22;10530;49.968;19.844;2023-12-29T10:11:54;14.10;19.30
20740;DHT22;10530;49.968;19.844;2023-12-29T10:17:06;13.30;17.90
20740;DHT22;10530;49.968;19.844;2023-12-29T10:27:36;14.30;17.40
20740;DHT22;10530;49.968;19.844;2023-12-29T10:32:39;14.50;12.80
20740;DHT22;10530;49.968;19.844;2023-12-29T10:37:42;15.00;10.00
20740;DHT22;10530;49.968;19.844;2023-12-29T10:42:52;15.80;8.50
20740;DHT22;10530;49.968;19.844;2023-12-29T10:47:56;15.50;6.60
20740;DHT22;10530;49.968;19.844;2023-12-29T10:53:19;15.70;6.30
20740;DHT22;10530;49.968;19.844;2023-12-29T10:58:22;15.20;7.20
20740;DHT22;10530;49.968;19.844;2023-12-29T11:03:27;15.00;5.30
20740;DHT22;10530;49.968;19.844;2023-12-29T11:08:35;13.80;11.10
20740;DHT22;10530;49.968;19.844;2023-12-29T11:13:39;13.60;13.30
20740;DHT22;10530;49.968;19.844;2023-12-29T11:18:43;13.90;12.20
20740;DHT22;10530;49.968;19.844;2023-12-29T11:23:49;13.90;12.50
20740;DHT22;10530;49.968;19.844;2023-12-29T11:28:53;14.50;11.10
20740;DHT22;10530;49.968;19.844;2023-12-29T11:34:03;14.20;11.60
20740;DHT22;10530;49.968;19.844;2023-12-29T11:44:25;13.50;13.30
20740;DHT22;10530;49.968;19.844;2023-12-29T11:49:58;13.30;14.30
20740;DHT22;10530;49.968;19.844;2023-12-29T11:55:11;13.30;16.20
20740;DHT22;10530;49.968;19.844;2023-12-29T12:00:14;13.30;15.20
20740;DHT22;10530;49.968;19.844;2023-12-29T12:05:45;13.40;14.90
20740;DHT22;10530;49.968;19.844;2023-12-29T12:10:50;13.50;14.10
20740;DHT22;10530;49.968;19.844;2023-12-29T12:15:52;13.30;13.00
20740;DHT22;10530;49.968;19.844;2023-12-29T12:20:55;13.60;14.80
20740;DHT22;10530;49.968;19.844;2023-12-29T12:26:01;13.60;13.90
20740;DHT22;10530;49.968;19.844;2023-12-29T12:31:06;13.50;13.10
20740;DHT22;10530;49.968;19.844;2023-12-29T12:36:11;13.80;12.60
20740;DHT22;10530;49.968;19.844;2023-12-29T12:41:15;14.00;14.00
20740;DHT22;10530;49.968;19.844;2023-12-29T12:46:23;14.10;12.50
20740;DHT22;10530;49.968;19.844;2023-12-29T12:51:29;13.90;12.90
20740;DHT22;10530;49.968;19.844;2023-12-29T12:56:33;13.80;12.40
20740;DHT22;10530;49.968;19.844;2023-12-29T13:01:38;13.50;12.90
20740;DHT22;10530;49.968;19.844;2023-12-29T13:06:43;13.40;14.10
20740;DHT22;10530;49.968;19.844;2023-12-29T13:11:50;13.40;14.00
20740;DHT22;10530;49.968;19.844;2023-12-29T13:16:53;13.40;14.40
20740;DHT22;10530;49.968;19.844;2023-12-29T13:21:56;13.10;16.00
20740;DHT22;10530;49.968;19.844;2023-12-29T13:27:07;13.00;16.60
20740;DHT22;10530;49.968;19.844;2023-12-29T13:37:24;12.70;15.00
20740;DHT22;10530;49.968;19.844;2023-12-29T13:42:30;12.30;16.30
20740;DHT22;10530;49.968;19.844;2023-12-29T13:47:36;12.30;15.10
20740;DHT22;10530;49.968;19.844;2023-12-29T13:52:40;12.10;15.60
20740;DHT22;10530;49.968;19.844;2023-12-29T13:57:43;11.90;15.70
20740;DHT22;10530;49.968;19.844;2023-12-29T14:02:57;11.70;17.90
20740;DHT22;10530;49.968;19.844;2023-12-29T14:08:09;11.60;18.30
20740;DHT22;10530;49.968;19.844;2023-12-29T14:13:14;11.50;19.30
20740;DHT22;10530;49.968;19.844;2023-12-29T14:23:25;11.20;20.20
20740;DHT22;10530;49.968;19.844;2023-12-29T14:28:28;11.00;20.30
20740;DHT22;10530;49.968;19.844;2023-12-29T14:33:31;10.80;21.30
20740;DHT22;10530;49.968;19.844;2023-12-29T14:38:34;10.80;21.60
20740;DHT22;10530;49.968;19.844;2023-12-29T14:43:38;10.60;22.30
20740;DHT22;10530;49.968;19.844;2023-12-29T14:48:41;10.40;23.60
20740;DHT22;10530;49.968;19.844;2023-12-29T14:53:47;10.10;24.70
20740;DHT22;10530;49.968;19.844;2023-12-29T14:58:51;9.90;27.50
20740;DHT22;10530;49.968;19.844;2023-12-29T15:03:54;9.40;30.50
20740;DHT22;10530;49.968;19.844;2023-12-29T15:08:57;9.00;40.20
20740;DHT22;10530;49.968;19.844;2023-12-29T15:13:59;8.70;45.00
20740;DHT22;10530;49.968;19.844;2023-12-29T15:19:02;8.60;53.40
20740;DHT22;10530;49.968;19.844;2023-12-29T15:24:08;8.10;67.80
20740;DHT22;10530;49.968;19.844;2023-12-29T15:29:11;7.90;80.20
20740;DHT22;10530;49.968;19.844;2023-12-29T15:34:14;7.90;90.20
20740;DHT22;10530;49.968;19.844;2023-12-29T15:39:17;8.00;91.20
20740;DHT22;10530;49.968;19.844;2023-12-29T15:44:20;7.70;98.00
20740;DHT22;10530;49.968;19.844;2023-12-29T15:49:23;7.50;99.90
20740;DHT22;10530;49.968;19.844;2023-12-29T15:54:26;7.60;99.90
20740;DHT22;10530;49.968;19.844;2023-12-29T15:59:31;7.60;99.90
20740;DHT22;10530;49.968;19.844;2023-12-29T16:04:33;7.60;99.90
20740;DHT22;10530;49.968;19.844;2023-12-29T16:09:36;7.70;99.90
20740;DHT22;10530;49.968;19.844;2023-12-29T16:14:39;8.00;98.20
20740;DHT22;10530;49.968;19.844;2023-12-29T16:19:42;8.10;97.20
20740;DHT22;10530;49.968;19.844;2023-12-29T16:24:46;8.30;95.40
20740;DHT22;10530;49.968;19.844;2023-12-29T16:29:51;8.40;94.00
20740;DHT22;10530;49.968;19.844;2023-12-29T16:34:54;8.40;93.90
20740;DHT22;10530;49.968;19.844;2023-12-29T16:39:58;8.70;92.10
20740;DHT22;10530;49.968;19.844;2023-12-29T16:45:01;8.90;89.80
20740;DHT22;10530;49.968;19.844;2023-12-29T16:50:04;8.90;88.00
20740;DHT22;10530;49.968;19.844;2023-12-29T16:55:07;8.90;88.00
20740;DHT22;10530;49.968;19.844;2023-12-29T17:00:10;8.90;87.60
20740;DHT22;10530;49.968;19.844;2023-12-29T17:05:14;8.90;86.50
20740;DHT22;10530;49.968;19.844;2023-12-29T17:10:17;8.80;88.90
20740;DHT22;10530;49.968;19.844;2023-12-29T17:15:20;8.80;89.10
20740;DHT22;10530;49.968;19.844;2023-12-29T17:20:24;8.70;90.20
20740;DHT22;10530;49.968;19.844;2023-12-29T17:25:27;8.80;90.10
20740;DHT22;10530;49.968;19.844;2023-12-29T17:30:30;9.00;86.80
20740;DHT22;10530;49.968;19.844;2023-12-29T17:35:33;9.20;85.40
20740;DHT22;10530;49.968;19.844;2023-12-29T17:40:36;9.30;81.80
20740;DHT22;10530;49.968;19.844;2023-12-29T17:45:39;9.30;81.70
20740;DHT22;10530;49.968;19.844;2023-12-29T17:50:42;9.50;79.40
20740;DHT22;10530;49.968;19.844;2023-12-29T17:55:45;9.80;76.50
20740;DHT22;10530;49.968;19.844;2023-12-29T18:00:49;9.80;77.20
20740;DHT22;10530;49.968;19.844;2023-12-29T18:05:52;9.90;76.00
20740;DHT22;10530;49.968;19.844;2023-12-29T18:10:57;10.00;75.50
20740;DHT22;10530;49.968;19.844;2023-12-29T18:16:01;10.00;74.40
20740;DHT22;10530;49.968;19.844;2023-12-29T18:21:05;10.00;75.50
20740;DHT22;10530;49.968;19.844;2023-12-29T18:26:08;10.00;74.40
20740;DHT22;10530;49.968;19.844;2023-12-29T18:31:12;10.00;72.80
20740;DHT22;10530;49.968;19.844;2023-12-29T18:36:16;9.90;73.40
20740;DHT22;10530;49.968;19.844;2023-12-29T18:41:19;9.80;74.40
20740;DHT22;10530;49.968;19.844;2023-12-29T18:46:22;9.70;75.80
20740;DHT22;10530;49.968;19.844;2023-12-29T18:51:25;9.70;74.50
20740;DHT22;10530;49.968;19.844;2023-12-29T18:56:28;9.60;76.70
20740;DHT22;10530;49.968;19.844;2023-12-29T19:01:31;9.40;78.30
20740;DHT22;10530;49.968;19.844;2023-12-29T19:06:34;9.40;78.50
20740;DHT22;10530;49.968;19.844;2023-12-29T19:11:37;9.30;80.20
20740;DHT22;10530;49.968;19.844;2023-12-29T19:16:40;9.30;80.10
20740;DHT22;10530;49.968;19.844;2023-12-29T19:21:44;9.20;80.80
20740;DHT22;10530;49.968;19.844;2023-12-29T19:26:49;9.20;80.60
20740;DHT22;10530;49.968;19.844;2023-12-29T19:31:53;9.10;82.00
20740;DHT22;10530;49.968;19.844;2023-12-29T19:36:57;9.10;81.40
20740;DHT22;10530;49.968;19.844;2023-12-29T19:42:01;8.80;85.80
20740;DHT22;10530;49.968;19.844;2023-12-29T19:47:05;8.80;86.50
20740;DHT22;10530;49.968;19.844;2023-12-29T19:52:09;8.70;88.20
20740;DHT22;10530;49.968;19.844;2023-12-29T19:57:13;8.60;90.20
20740;DHT22;10530;49.968;19.844;2023-12-29T20:02:16;8.70;90.10
20740;DHT22;10530;49.968;19.844;2023-12-29T20:07:19;8.80;88.50
20740;DHT22;10530;49.968;19.844;2023-12-29T20:12:23;9.10;85.60
20740;DHT22;10530;49.968;19.844;2023-12-29T20:17:27;9.20;83.60
20740;DHT22;10530;49.968;19.844;2023-12-29T20:22:32;9.50;78.60
20740;DHT22;10530;49.968;19.844;2023-12-29T20:27:36;9.70;75.80
20740;DHT22;10530;49.968;19.844;2023-12-29T20:32:39;9.80;75.70
20740;DHT22;10530;49.968;19.844;2023-12-29T20:37:42;9.80;75.30
20740;DHT22;10530;49.968;19.844;2023-12-29T20:42:45;9.90;74.60
20740;DHT22;10530;49.968;19.844;2023-12-29T20:47:48;10.00;73.80
20740;DHT22;10530;49.968;19.844;2023-12-29T20:52:51;9.90;75.40
20740;DHT22;10530;49.968;19.844;2023-12-29T20:57:54;10.00;74.00
20740;DHT22;10530;49.968;19.844;2023-12-29T21:02:57;10.00;74.10
20740;DHT22;10530;49.968;19.844;2023-12-29T21:08:01;10.00;73.10
20740;DHT22;10530;49.968;19.844;2023-12-29T21:13:04;9.90;71.00
20740;DHT22;10530;49.968;19.844;2023-12-29T21:18:08;9.90;72.10
20740;DHT22;10530;49.968;19.844;2023-12-29T21:23:11;9.80;71.90
20740;DHT22;10530;49.968;19.844;2023-12-29T21:28:13;9.90;69.00
20740;DHT22;10530;49.968;19.844;2023-12-29T21:33:16;9.80;69.10
20740;DHT22;10530;49.968;19.844;2023-12-29T21:38:20;9.80;67.80
20740;DHT22;10530;49.968;19.844;2023-12-29T21:43:22;9.70;68.00
20740;DHT22;10530;49.968;19.844;2023-12-29T21:48:25;9.70;69.30
20740;DHT22;10530;49.968;19.844;2023-12-29T21:53:29;9.60;69.00
20740;DHT22;10530;49.968;19.844;2023-12-29T21:58:34;9.70;66.70
20740;DHT22;10530;49.968;19.844;2023-12-29T22:03:38;9.70;67.10
20740;DHT22;10530;49.968;19.844;2023-12-29T22:08:40;9.90;63.40
20740;DHT22;10530;49.968;19.844;2023-12-29T22:13:44;9.90;63.10
20740;DHT22;10530;49.968;19.844;2023-12-29T22:18:47;10.10;59.50
20740;DHT22;10530;49.968;19.844;2023-12-29T22:23:52;10.00;59.50
20740;DHT22;10530;49.968;19.844;2023-12-29T22:28:55;10.10;58.40
20740;DHT22;10530;49.968;19.844;2023-12-29T22:33:58;10.00;59.00
20740;DHT22;10530;49.968;19.844;2023-12-29T22:39:01;10.00;59.50
20740;DHT22;10530;49.968;19.844;2023-12-29T22:44:03;9.80;61.10
20740;DHT22;10530;49.968;19.844;2023-12-29T22:49:06;9.80;62.80
20740;DHT22;10530;49.968;19.844;2023-12-29T22:54:10;9.90;63.00
20740;DHT22;10530;49.968;19.844;2023-12-29T22:59:13;10.00;63.70
20740;DHT22;10530;49.968;19.844;2023-12-29T23:04:16;10.00;64.70
20740;DHT22;10530;49.968;19.844;2023-12-29T23:09:19;9.90;64.40
20740;DHT22;10530;49.968;19.844;2023-12-29T23:14:22;9.90;65.10
20740;DHT22;10530;49.968;19.844;2023-12-29T23:19:25;9.70;66.90
20740;DHT22;10530;49.968;19.844;2023-12-29T23:24:28;9.60;70.50
20740;DHT22;10530;49.968;19.844;2023-12-29T23:29:31;9.60;70.20
20740;DHT22;10530;49.968;19.844;2023-12-29T23:34:34;9.50;72.00
20740;DHT22;10530;49.968;19.844;2023-12-29T23:39:37;9.50;71.80
20740;DHT22;10530;49.968;19.844;2023-12-29T23:44:40;9.60;69.50
20740;DHT22;10530;49.968;19.844;2023-12-29T23:49:42;9.60;69.80
20740;DHT22;10530;49.968;19.844;2023-12-29T23:54:47;9.40;70.10
20740;DHT22;10530;49.968;19.844;2023-12-29T23:59:50;9.40;69.20
